sensor_id;sensor_type;location;lat;lon;timestamp;P1;durP1;ratioP1;P2;durP2;ratioP2
22425;SDS011;11380;50.822;15.790;2022-11-20T00:00:38;26.30;;;24.18;;
22425;SDS011;11380;50.822;15.790;2022-11-20T00:05:46;30.90;;;26.40;;
22425;SDS011;11380;50.822;15.790;2022-11-20T00:10:51;19.07;;;17.70;;
22425;SDS011;11380;50.822;15.790;2022-11-20T00:15:57;28.07;;;25.63;;
22425;SDS011;11380;50.822;15.790;2022-11-20T00:21:10;25.47;;;23.27;;
22425;SDS011;11380;50.822;15.790;2022-11-20T00:26:14;25.77;;;23.63;;
22425;SDS011;11380;50.822;15.790;2022-11-20T00:31:21;26.42;;;24.25;;
22425;SDS011;11380;50.822;15.790;2022-11-20T00:36:28;27.63;;;25.13;;
22425;SDS011;11380;50.822;15.790;2022-11-20T00:41:36;25.85;;;24.02;;
22425;SDS011;11380;50.822;15.790;2022-11-20T00:46:42;25.97;;;24.03;;
22425;SDS011;11380;50.822;15.790;2022-11-20T00:51:47;25.67;;;23.77;;
22425;SDS011;11380;50.822;15.790;2022-11-20T00:56:52;23.13;;;21.63;;
22425;SDS011;11380;50.822;15.790;2022-11-20T01:01:58;25.80;;;23.77;;
22425;SDS011;11380;50.822;15.790;2022-11-20T01:07:03;22.63;;;21.03;;
22425;SDS011;11380;50.822;15.790;2022-11-20T01:12:09;22.50;;;20.82;;
22425;SDS011;11380;50.822;15.790;2022-11-20T01:17:15;29.45;;;26.57;;
22425;SDS011;11380;50.822;15.790;2022-11-20T01:22:21;25.27;;;23.07;;
22425;SDS011;11380;50.822;15.790;2022-11-20T01:27:26;30.17;;;27.17;;
22425;SDS011;11380;50.822;15.790;2022-11-20T01:32:32;28.00;;;25.50;;
22425;SDS011;11380;50.822;15.790;2022-11-20T01:37:38;23.85;;;22.05;;
22425;SDS011;11380;50.822;15.790;2022-11-20T01:42:51;25.27;;;23.10;;
22425;SDS011;11380;50.822;15.790;2022-11-20T01:48:09;26.63;;;23.97;;
22425;SDS011;11380;50.822;15.790;2022-11-20T01:53:16;24.23;;;22.30;;
22425;SDS011;11380;50.822;15.790;2022-11-20T01:58:25;23.10;;;20.95;;
22425;SDS011;11380;50.822;15.790;2022-11-20T02:03:32;24.90;;;22.58;;
22425;SDS011;11380;50.822;15.790;2022-11-20T02:08:38;24.03;;;22.07;;
22425;SDS011;11380;50.822;15.790;2022-11-20T02:18:49;22.82;;;21.27;;
22425;SDS011;11380;50.822;15.790;2022-11-20T02:29:10;24.10;;;22.37;;
22425;SDS011;11380;50.822;15.790;2022-11-20T02:34:15;24.30;;;22.47;;
22425;SDS011;11380;50.822;15.790;2022-11-20T02:39:22;23.20;;;20.90;;
22425;SDS011;11380;50.822;15.790;2022-11-20T02:44:31;21.73;;;20.35;;
22425;SDS011;11380;50.822;15.790;2022-11-20T02:49:37;17.73;;;16.17;;
22425;SDS011;11380;50.822;15.790;2022-11-20T02:54:42;23.97;;;21.97;;
22425;SDS011;11380;50.822;15.790;2022-11-20T02:59:47;23.10;;;21.33;;
22425;SDS011;11380;50.822;15.790;2022-11-20T03:04:53;20.60;;;19.25;;
22425;SDS011;11380;50.822;15.790;2022-11-20T03:09:59;22.73;;;21.00;;
22425;SDS011;11380;50.822;15.790;2022-11-20T03:15:04;25.00;;;22.63;;
22425;SDS011;11380;50.822;15.790;2022-11-20T03:20:10;21.87;;;20.37;;
22425;SDS011;11380;50.822;15.790;2022-11-20T03:25:15;23.70;;;21.70;;
22425;SDS011;11380;50.822;15.790;2022-11-20T03:30:21;22.73;;;21.12;;
22425;SDS011;11380;50.822;15.790;2022-11-20T03:35:28;21.73;;;20.07;;
22425;SDS011;11380;50.822;15.790;2022-11-20T03:40:33;21.43;;;19.80;;
22425;SDS011;11380;50.822;15.790;2022-11-20T03:45:38;22.30;;;20.40;;
22425;SDS011;11380;50.822;15.790;2022-11-20T03:50:43;22.87;;;21.17;;
22425;SDS011;11380;50.822;15.790;2022-11-20T03:55:51;24.27;;;22.07;;
22425;SDS011;11380;50.822;15.790;2022-11-20T04:06:02;22.90;;;21.17;;
22425;SDS011;11380;50.822;15.790;2022-11-20T04:11:23;24.20;;;21.57;;
22425;SDS011;11380;50.822;15.790;2022-11-20T04:16:30;22.60;;;20.90;;
22425;SDS011;11380;50.822;15.790;2022-11-20T04:21:37;23.85;;;21.77;;
22425;SDS011;11380;50.822;15.790;2022-11-20T04:26:42;22.13;;;20.20;;
22425;SDS011;11380;50.822;15.790;2022-11-20T04:31:48;22.85;;;20.80;;
22425;SDS011;11380;50.822;15.790;2022-11-20T04:36:53;14.67;;;13.70;;
22425;SDS011;11380;50.822;15.790;2022-11-20T04:41:58;22.60;;;20.60;;
22425;SDS011;11380;50.822;15.790;2022-11-20T04:47:21;22.57;;;20.53;;
22425;SDS011;11380;50.822;15.790;2022-11-20T04:52:26;21.70;;;19.90;;
22425;SDS011;11380;50.822;15.790;2022-11-20T04:57:32;20.53;;;19.23;;
22425;SDS011;11380;50.822;15.790;2022-11-20T05:02:37;21.30;;;19.97;;
22425;SDS011;11380;50.822;15.790;2022-11-20T05:07:43;22.10;;;20.60;;
22425;SDS011;11380;50.822;15.790;2022-11-20T05:12:49;20.13;;;18.77;;
22425;SDS011;11380;50.822;15.790;2022-11-20T05:17:54;20.85;;;19.35;;
22425;SDS011;11380;50.822;15.790;2022-11-20T05:22:59;20.77;;;19.23;;
22425;SDS011;11380;50.822;15.790;2022-11-20T05:28:04;19.30;;;18.10;;
22425;SDS011;11380;50.822;15.790;2022-11-20T05:33:09;19.60;;;18.40;;
22425;SDS011;11380;50.822;15.790;2022-11-20T05:38:15;20.10;;;18.87;;
22425;SDS011;11380;50.822;15.790;2022-11-20T05:43:21;19.47;;;17.97;;
22425;SDS011;11380;50.822;15.790;2022-11-20T05:48:26;20.80;;;19.30;;
22425;SDS011;11380;50.822;15.790;2022-11-20T05:53:33;19.35;;;17.80;;
22425;SDS011;11380;50.822;15.790;2022-11-20T05:58:41;19.37;;;18.07;;
22425;SDS011;11380;50.822;15.790;2022-11-20T06:03:47;18.60;;;17.40;;
22425;SDS011;11380;50.822;15.790;2022-11-20T06:08:54;20.13;;;18.73;;
22425;SDS011;11380;50.822;15.790;2022-11-20T06:14:03;19.83;;;18.37;;
22425;SDS011;11380;50.822;15.790;2022-11-20T06:19:08;21.00;;;19.33;;
22425;SDS011;11380;50.822;15.790;2022-11-20T06:24:14;19.40;;;18.05;;
22425;SDS011;11380;50.822;15.790;2022-11-20T06:29:22;19.90;;;18.40;;
22425;SDS011;11380;50.822;15.790;2022-11-20T06:34:28;20.23;;;18.77;;
22425;SDS011;11380;50.822;15.790;2022-11-20T06:39:34;14.90;;;13.32;;
22425;SDS011;11380;50.822;15.790;2022-11-20T06:44:39;16.83;;;15.40;;
22425;SDS011;11380;50.822;15.790;2022-11-20T06:49:44;19.50;;;18.20;;
22425;SDS011;11380;50.822;15.790;2022-11-20T06:54:49;18.33;;;17.23;;
22425;SDS011;11380;50.822;15.790;2022-11-20T06:59:54;19.57;;;18.17;;
22425;SDS011;11380;50.822;15.790;2022-11-20T07:05:00;18.80;;;17.60;;
22425;SDS011;11380;50.822;15.790;2022-11-20T07:10:05;19.37;;;18.00;;
22425;SDS011;11380;50.822;15.790;2022-11-20T07:15:10;15.93;;;14.57;;
22425;SDS011;11380;50.822;15.790;2022-11-20T07:20:16;24.00;;;22.10;;
22425;SDS011;11380;50.822;15.790;2022-11-20T07:25:22;29.85;;;26.15;;
22425;SDS011;11380;50.822;15.790;2022-11-20T07:30:31;35.23;;;28.27;;
22425;SDS011;11380;50.822;15.790;2022-11-20T07:35:37;59.80;;;38.00;;
22425;SDS011;11380;50.822;15.790;2022-11-20T07:40:42;55.33;;;40.50;;
22425;SDS011;11380;50.822;15.790;2022-11-20T07:45:49;53.87;;;37.25;;
22425;SDS011;11380;50.822;15.790;2022-11-20T07:50:54;44.13;;;34.50;;
22425;SDS011;11380;50.822;15.790;2022-11-20T07:56:02;43.73;;;35.77;;
22425;SDS011;11380;50.822;15.790;2022-11-20T08:01:07;49.90;;;30.67;;
22425;SDS011;11380;50.822;15.790;2022-11-20T08:06:12;70.70;;;43.57;;
22425;SDS011;11380;50.822;15.790;2022-11-20T08:11:18;60.80;;;46.68;;
22425;SDS011;11380;50.822;15.790;2022-11-20T08:16:45;49.50;;;41.40;;
22425;SDS011;11380;50.822;15.790;2022-11-20T08:21:52;42.73;;;38.40;;
22425;SDS011;11380;50.822;15.790;2022-11-20T08:26:57;40.57;;;36.60;;
22425;SDS011;11380;50.822;15.790;2022-11-20T08:32:03;46.50;;;40.90;;
22425;SDS011;11380;50.822;15.790;2022-11-20T08:37:10;53.10;;;44.88;;
22425;SDS011;11380;50.822;15.790;2022-11-20T08:42:15;31.40;;;28.70;;
22425;SDS011;11380;50.822;15.790;2022-11-20T08:47:22;39.18;;;35.80;;
22425;SDS011;11380;50.822;15.790;2022-11-20T08:52:26;40.60;;;37.27;;
22425;SDS011;11380;50.822;15.790;2022-11-20T08:57:32;30.30;;;27.55;;
22425;SDS011;11380;50.822;15.790;2022-11-20T09:02:39;42.97;;;39.67;;
22425;SDS011;11380;50.822;15.790;2022-11-20T09:07:44;40.37;;;37.33;;
22425;SDS011;11380;50.822;15.790;2022-11-20T09:12:49;42.47;;;38.83;;
22425;SDS011;11380;50.822;15.790;2022-11-20T09:17:56;41.77;;;38.60;;
22425;SDS011;11380;50.822;15.790;2022-11-20T09:23:02;44.23;;;40.60;;
22425;SDS011;11380;50.822;15.790;2022-11-20T09:28:07;42.20;;;38.80;;
22425;SDS011;11380;50.822;15.790;2022-11-20T09:33:13;42.13;;;39.13;;
22425;SDS011;11380;50.822;15.790;2022-11-20T09:38:18;41.87;;;38.77;;
22425;SDS011;11380;50.822;15.790;2022-11-20T09:49:21;42.93;;;39.27;;
22425;SDS011;11380;50.822;15.790;2022-11-20T09:54:19;43.07;;;39.80;;
22425;SDS011;11380;50.822;15.790;2022-11-20T09:59:29;43.77;;;40.37;;
22425;SDS011;11380;50.822;15.790;2022-11-20T10:04:35;44.13;;;40.83;;
22425;SDS011;11380;50.822;15.790;2022-11-20T10:09:47;44.40;;;41.00;;
22425;SDS011;11380;50.822;15.790;2022-11-20T10:15:01;45.17;;;41.53;;
22425;SDS011;11380;50.822;15.790;2022-11-20T10:20:29;43.30;;;39.90;;
22425;SDS011;11380;50.822;15.790;2022-11-20T10:31:09;48.10;;;44.00;;
22425;SDS011;11380;50.822;15.790;2022-11-20T10:36:17;49.60;;;45.30;;
22425;SDS011;11380;50.822;15.790;2022-11-20T10:41:32;48.07;;;43.63;;
22425;SDS011;11380;50.822;15.790;2022-11-20T10:46:44;48.93;;;44.93;;
22425;SDS011;11380;50.822;15.790;2022-11-20T10:57:00;45.07;;;41.67;;
22425;SDS011;11380;50.822;15.790;2022-11-20T11:02:16;44.03;;;40.93;;
22425;SDS011;11380;50.822;15.790;2022-11-20T11:07:24;44.37;;;41.23;;
22425;SDS011;11380;50.822;15.790;2022-11-20T11:12:31;45.10;;;41.53;;
22425;SDS011;11380;50.822;15.790;2022-11-20T11:17:36;45.10;;;41.37;;
22425;SDS011;11380;50.822;15.790;2022-11-20T11:22:46;43.90;;;40.80;;
22425;SDS011;11380;50.822;15.790;2022-11-20T11:27:54;43.43;;;40.13;;
22425;SDS011;11380;50.822;15.790;2022-11-20T11:33:05;43.53;;;40.53;;
22425;SDS011;11380;50.822;15.790;2022-11-20T11:38:21;44.50;;;41.18;;
22425;SDS011;11380;50.822;15.790;2022-11-20T11:43:53;43.63;;;40.33;;
22425;SDS011;11380;50.822;15.790;2022-11-20T11:49:16;43.27;;;40.17;;
22425;SDS011;11380;50.822;15.790;2022-11-20T11:54:24;44.50;;;41.20;;
22425;SDS011;11380;50.822;15.790;2022-11-20T12:04:52;44.00;;;40.88;;
22425;SDS011;11380;50.822;15.790;2022-11-20T12:10:12;43.20;;;40.00;;
22425;SDS011;11380;50.822;15.790;2022-11-20T12:15:28;42.90;;;39.80;;
22425;SDS011;11380;50.822;15.790;2022-11-20T12:20:40;42.23;;;39.23;;
22425;SDS011;11380;50.822;15.790;2022-11-20T12:25:47;43.63;;;40.57;;
22425;SDS011;11380;50.822;15.790;2022-11-20T12:36:21;44.83;;;41.07;;
22425;SDS011;11380;50.822;15.790;2022-11-20T12:52:37;44.87;;;41.53;;
22425;SDS011;11380;50.822;15.790;2022-11-20T13:08:30;45.37;;;41.97;;
22425;SDS011;11380;50.822;15.790;2022-11-20T13:14:22;44.97;;;41.73;;
22425;SDS011;11380;50.822;15.790;2022-11-20T13:18:41;44.10;;;40.60;;
22425;SDS011;11380;50.822;15.790;2022-11-20T13:23:48;44.30;;;40.63;;
22425;SDS011;11380;50.822;15.790;2022-11-20T13:29:01;43.37;;;40.33;;
22425;SDS011;11380;50.822;15.790;2022-11-20T13:34:24;46.73;;;42.83;;
22425;SDS011;11380;50.822;15.790;2022-11-20T13:39:31;47.35;;;43.65;;
22425;SDS011;11380;50.822;15.790;2022-11-20T13:44:47;48.57;;;44.37;;
22425;SDS011;11380;50.822;15.790;2022-11-20T13:55:11;47.43;;;43.43;;
22425;SDS011;11380;50.822;15.790;2022-11-20T14:00:25;45.87;;;42.27;;
22425;SDS011;11380;50.822;15.790;2022-11-20T14:05:31;46.40;;;42.93;;
22425;SDS011;11380;50.822;15.790;2022-11-20T14:10:39;47.78;;;43.92;;
22425;SDS011;11380;50.822;15.790;2022-11-20T14:15:45;44.30;;;40.70;;
22425;SDS011;11380;50.822;15.790;2022-11-20T14:20:50;45.53;;;41.83;;
22425;SDS011;11380;50.822;15.790;2022-11-20T14:25:55;44.47;;;40.97;;
22425;SDS011;11380;50.822;15.790;2022-11-20T14:31:01;45.90;;;42.30;;
22425;SDS011;11380;50.822;15.790;2022-11-20T14:36:15;43.83;;;40.07;;
22425;SDS011;11380;50.822;15.790;2022-11-20T14:41:19;43.40;;;40.27;;
22425;SDS011;11380;50.822;15.790;2022-11-20T14:46:26;44.20;;;40.67;;
22425;SDS011;11380;50.822;15.790;2022-11-20T14:51:35;43.40;;;40.35;;
22425;SDS011;11380;50.822;15.790;2022-11-20T14:56:53;43.40;;;39.75;;
22425;SDS011;11380;50.822;15.790;2022-11-20T15:02:00;43.43;;;40.17;;
22425;SDS011;11380;50.822;15.790;2022-11-20T15:07:26;43.98;;;40.52;;
22425;SDS011;11380;50.822;15.790;2022-11-20T15:12:37;43.60;;;40.20;;
22425;SDS011;11380;50.822;15.790;2022-11-20T15:17:44;43.83;;;40.47;;
22425;SDS011;11380;50.822;15.790;2022-11-20T15:22:49;45.50;;;41.30;;
22425;SDS011;11380;50.822;15.790;2022-11-20T15:27:55;45.47;;;41.63;;
22425;SDS011;11380;50.822;15.790;2022-11-20T15:33:02;44.97;;;41.27;;
22425;SDS011;11380;50.822;15.790;2022-11-20T15:38:07;52.03;;;46.87;;
22425;SDS011;11380;50.822;15.790;2022-11-20T15:43:12;58.93;;;52.33;;
22425;SDS011;11380;50.822;15.790;2022-11-20T15:48:19;55.80;;;49.37;;
22425;SDS011;11380;50.822;15.790;2022-11-20T15:53:27;49.77;;;44.55;;
22425;SDS011;11380;50.822;15.790;2022-11-20T15:58:32;50.27;;;44.93;;
22425;SDS011;11380;50.822;15.790;2022-11-20T16:03:38;42.83;;;39.00;;
22425;SDS011;11380;50.822;15.790;2022-11-20T16:08:43;47.30;;;42.93;;
22425;SDS011;11380;50.822;15.790;2022-11-20T16:13:49;48.67;;;43.23;;
22425;SDS011;11380;50.822;15.790;2022-11-20T16:19:13;54.47;;;46.40;;
22425;SDS011;11380;50.822;15.790;2022-11-20T16:24:19;30.77;;;28.40;;
22425;SDS011;11380;50.822;15.790;2022-11-20T16:29:25;45.35;;;41.37;;
22425;SDS011;11380;50.822;15.790;2022-11-20T16:34:30;47.90;;;42.97;;
22425;SDS011;11380;50.822;15.790;2022-11-20T16:39:36;61.53;;;50.85;;
22425;SDS011;11380;50.822;15.790;2022-11-20T16:44:44;48.67;;;43.23;;
22425;SDS011;11380;50.822;15.790;2022-11-20T16:49:51;49.77;;;44.67;;
22425;SDS011;11380;50.822;15.790;2022-11-20T16:54:57;50.03;;;45.03;;
22425;SDS011;11380;50.822;15.790;2022-11-20T17:00:03;45.78;;;41.23;;
22425;SDS011;11380;50.822;15.790;2022-11-20T17:05:10;46.73;;;41.83;;
22425;SDS011;11380;50.822;15.790;2022-11-20T17:10:15;48.20;;;43.43;;
22425;SDS011;11380;50.822;15.790;2022-11-20T17:15:21;47.20;;;42.30;;
22425;SDS011;11380;50.822;15.790;2022-11-20T17:20:26;48.03;;;42.90;;
22425;SDS011;11380;50.822;15.790;2022-11-20T17:25:33;47.43;;;42.60;;
22425;SDS011;11380;50.822;15.790;2022-11-20T17:30:39;42.93;;;39.30;;
22425;SDS011;11380;50.822;15.790;2022-11-20T17:35:44;42.90;;;39.13;;
22425;SDS011;11380;50.822;15.790;2022-11-20T17:40:50;44.80;;;40.50;;
22425;SDS011;11380;50.822;15.790;2022-11-20T17:45:57;45.17;;;40.38;;
22425;SDS011;11380;50.822;15.790;2022-11-20T17:51:04;43.63;;;39.17;;
22425;SDS011;11380;50.822;15.790;2022-11-20T17:56:10;43.40;;;39.07;;
22425;SDS011;11380;50.822;15.790;2022-11-20T18:01:34;48.03;;;42.37;;
22425;SDS011;11380;50.822;15.790;2022-11-20T18:06:40;46.67;;;42.07;;
22425;SDS011;11380;50.822;15.790;2022-11-20T18:11:46;45.23;;;40.60;;
22425;SDS011;11380;50.822;15.790;2022-11-20T18:16:55;46.77;;;41.23;;
22425;SDS011;11380;50.822;15.790;2022-11-20T18:22:00;60.57;;;48.53;;
22425;SDS011;11380;50.822;15.790;2022-11-20T18:27:07;49.60;;;44.37;;
22425;SDS011;11380;50.822;15.790;2022-11-20T18:32:14;59.03;;;44.20;;
22425;SDS011;11380;50.822;15.790;2022-11-20T18:37:20;40.98;;;37.28;;
22425;SDS011;11380;50.822;15.790;2022-11-20T18:42:26;50.28;;;41.05;;
22425;SDS011;11380;50.822;15.790;2022-11-20T18:47:49;43.67;;;39.10;;
22425;SDS011;11380;50.822;15.790;2022-11-20T18:52:54;40.53;;;36.43;;
22425;SDS011;11380;50.822;15.790;2022-11-20T18:58:00;44.83;;;40.00;;
22425;SDS011;11380;50.822;15.790;2022-11-20T19:03:06;43.33;;;38.80;;
22425;SDS011;11380;50.822;15.790;2022-11-20T19:08:12;42.38;;;38.40;;
22425;SDS011;11380;50.822;15.790;2022-11-20T19:13:17;37.83;;;34.60;;
22425;SDS011;11380;50.822;15.790;2022-11-20T19:18:23;40.77;;;36.47;;
22425;SDS011;11380;50.822;15.790;2022-11-20T19:23:29;40.20;;;36.17;;
22425;SDS011;11380;50.822;15.790;2022-11-20T19:28:36;47.50;;;37.93;;
22425;SDS011;11380;50.822;15.790;2022-11-20T19:33:42;78.78;;;46.95;;
22425;SDS011;11380;50.822;15.790;2022-11-20T19:38:50;39.37;;;35.20;;
22425;SDS011;11380;50.822;15.790;2022-11-20T19:44:02;38.38;;;34.73;;
22425;SDS011;11380;50.822;15.790;2022-11-20T19:49:05;37.93;;;34.23;;
22425;SDS011;11380;50.822;15.790;2022-11-20T19:54:12;37.03;;;33.27;;
22425;SDS011;11380;50.822;15.790;2022-11-20T19:59:20;34.60;;;31.67;;
22425;SDS011;11380;50.822;15.790;2022-11-20T20:04:26;36.38;;;32.60;;
22425;SDS011;11380;50.822;15.790;2022-11-20T20:09:31;33.30;;;30.40;;
22425;SDS011;11380;50.822;15.790;2022-11-20T20:14:37;34.97;;;31.93;;
22425;SDS011;11380;50.822;15.790;2022-11-20T20:19:43;35.27;;;32.17;;
22425;SDS011;11380;50.822;15.790;2022-11-20T20:24:48;36.80;;;33.17;;
22425;SDS011;11380;50.822;15.790;2022-11-20T20:35:00;36.23;;;31.63;;
22425;SDS011;11380;50.822;15.790;2022-11-20T20:40:06;32.40;;;29.93;;
22425;SDS011;11380;50.822;15.790;2022-11-20T20:45:14;32.37;;;29.53;;
22425;SDS011;11380;50.822;15.790;2022-11-20T20:50:20;32.00;;;29.67;;
22425;SDS011;11380;50.822;15.790;2022-11-20T20:55:25;32.77;;;30.20;;
22425;SDS011;11380;50.822;15.790;2022-11-20T21:00:31;32.20;;;29.60;;
22425;SDS011;11380;50.822;15.790;2022-11-20T21:05:36;32.15;;;29.32;;
22425;SDS011;11380;50.822;15.790;2022-11-20T21:10:41;31.23;;;28.97;;
22425;SDS011;11380;50.822;15.790;2022-11-20T21:20:54;35.50;;;31.47;;
22425;SDS011;11380;50.822;15.790;2022-11-20T21:26:17;34.17;;;30.97;;
22425;SDS011;11380;50.822;15.790;2022-11-20T21:36:30;32.20;;;29.50;;
22425;SDS011;11380;50.822;15.790;2022-11-20T21:41:36;33.28;;;30.23;;
22425;SDS011;11380;50.822;15.790;2022-11-20T21:46:42;30.80;;;28.40;;
22425;SDS011;11380;50.822;15.790;2022-11-20T21:51:49;32.93;;;30.33;;
22425;SDS011;11380;50.822;15.790;2022-11-20T21:56:56;32.75;;;29.90;;
22425;SDS011;11380;50.822;15.790;2022-11-20T22:02:02;35.83;;;32.20;;
22425;SDS011;11380;50.822;15.790;2022-11-20T22:07:07;33.67;;;30.53;;
22425;SDS011;11380;50.822;15.790;2022-11-20T22:12:12;31.23;;;28.50;;
22425;SDS011;11380;50.822;15.790;2022-11-20T22:17:17;37.97;;;34.03;;
22425;SDS011;11380;50.822;15.790;2022-11-20T22:27:29;35.08;;;31.85;;
22425;SDS011;11380;50.822;15.790;2022-11-20T22:32:35;29.48;;;26.27;;
22425;SDS011;11380;50.822;15.790;2022-11-20T22:37:40;21.95;;;19.85;;
22425;SDS011;11380;50.822;15.790;2022-11-20T22:42:46;31.13;;;28.63;;
22425;SDS011;11380;50.822;15.790;2022-11-20T22:47:51;29.95;;;27.35;;
22425;SDS011;11380;50.822;15.790;2022-11-20T22:52:56;28.27;;;26.03;;
22425;SDS011;11380;50.822;15.790;2022-11-20T22:58:02;21.80;;;19.53;;
22425;SDS011;11380;50.822;15.790;2022-11-20T23:03:07;31.90;;;28.87;;
22425;SDS011;11380;50.822;15.790;2022-11-20T23:08:14;28.17;;;26.13;;
22425;SDS011;11380;50.822;15.790;2022-11-20T23:13:18;26.97;;;24.97;;
22425;SDS011;11380;50.822;15.790;2022-11-20T23:18:24;28.03;;;25.73;;
22425;SDS011;11380;50.822;15.790;2022-11-20T23:23:29;25.33;;;23.50;;
22425;SDS011;11380;50.822;15.790;2022-11-20T23:28:36;24.15;;;22.60;;
22425;SDS011;11380;50.822;15.790;2022-11-20T23:33:43;25.27;;;23.62;;
22425;SDS011;11380;50.822;15.790;2022-11-20T23:38:49;24.20;;;22.63;;
22425;SDS011;11380;50.822;15.790;2022-11-20T23:43:54;27.98;;;25.97;;
22425;SDS011;11380;50.822;15.790;2022-11-20T23:49:00;25.50;;;24.00;;
22425;SDS011;11380;50.822;15.790;2022-11-20T23:54:05;25.50;;;24.00;;
22425;SDS011;11380;50.822;15.790;2022-11-20T23:59:10;34.27;;;30.90;;
